createdAt,value
2023-01-26T00:01:20.791Z,8.07
2023-01-26T00:03:49.684Z,8.57
2023-01-26T00:06:19.337Z,9.85
2023-01-26T00:08:53.230Z,12.32
2023-01-26T00:12:05.144Z,12.05
2023-01-26T00:18:31.917Z,9.88
2023-01-26T00:21:24.956Z,10.90
2023-01-26T00:23:54.065Z,10.05
2023-01-26T00:26:24.721Z,10.52
2023-01-26T00:28:53.727Z,10.45
2023-01-26T00:32:29.310Z,10.75
2023-01-26T00:35:00.376Z,9.90
2023-01-26T00:37:28.568Z,10.00
2023-01-26T00:39:56.431Z,11.30
2023-01-26T00:42:25.647Z,10.60
2023-01-26T00:44:53.309Z,10.88
2023-01-26T00:47:21.488Z,10.52
2023-01-26T00:53:57.698Z,9.55
2023-01-26T00:56:28.529Z,9.13
2023-01-26T00:58:56.769Z,8.93
2023-01-26T01:01:24.658Z,7.78
2023-01-26T01:03:55.687Z,8.90
2023-01-26T01:06:23.616Z,9.15
2023-01-26T01:08:52.102Z,9.15
2023-01-26T01:16:12.972Z,8.20
2023-01-26T01:18:41.249Z,8.90
2023-01-26T01:21:59.316Z,9.00
2023-01-26T01:24:27.597Z,8.70
2023-01-26T01:26:55.260Z,7.90
2023-01-26T01:29:23.473Z,8.68
2023-01-26T01:31:51.103Z,8.02
2023-01-26T01:34:19.351Z,8.30
2023-01-26T01:37:37.669Z,8.52
2023-01-26T01:40:14.147Z,8.23
2023-01-26T01:42:49.474Z,8.45
2023-01-26T01:45:27.192Z,8.05
2023-01-26T01:52:10.568Z,6.43
2023-01-26T01:54:44.437Z,5.65
2023-01-26T01:57:29.013Z,5.22
2023-01-26T02:00:49.479Z,4.90
2023-01-26T02:03:21.853Z,6.35
2023-01-26T02:05:53.285Z,5.38
2023-01-26T02:08:43.999Z,5.00
2023-01-26T02:11:42.379Z,4.55
2023-01-26T02:14:46.976Z,4.43
2023-01-26T02:17:19.827Z,4.65
2023-01-26T02:20:28.532Z,4.90
2023-01-26T02:23:10.251Z,4.38
2023-01-26T02:25:38.064Z,4.60
2023-01-26T02:28:06.148Z,4.70
2023-01-26T02:30:34.569Z,5.00
2023-01-26T02:33:02.859Z,4.50
2023-01-26T02:35:31.104Z,4.55
2023-01-26T02:38:00.386Z,5.20
2023-01-26T02:40:37.832Z,5.03
2023-01-26T02:43:06.693Z,4.50
2023-01-26T02:50:58.624Z,4.30
2023-01-26T02:53:26.528Z,5.05
2023-01-26T02:55:54.664Z,3.92
2023-01-26T02:58:22.610Z,4.97
2023-01-26T03:00:50.712Z,5.32
2023-01-26T03:03:42.308Z,4.57
2023-01-26T03:06:13.508Z,7.13
2023-01-26T03:08:49.967Z,6.88
2023-01-26T03:11:24.022Z,10.48
2023-01-26T03:13:52.047Z,12.48
2023-01-26T03:16:24.349Z,20.70
2023-01-26T03:27:28.744Z,13.98
2023-01-26T03:30:31.416Z,6.68
2023-01-26T03:33:01.083Z,6.85
2023-01-26T03:35:29.120Z,6.50
2023-01-26T03:37:58.965Z,6.88
2023-01-26T03:41:08.311Z,6.80
2023-01-26T03:43:54.593Z,7.47
2023-01-26T03:46:41.803Z,7.57
2023-01-26T03:49:29.568Z,7.45
2023-01-26T03:52:16.597Z,7.30
2023-01-26T03:55:02.824Z,7.03
2023-01-26T03:57:32.205Z,8.93
2023-01-26T03:59:59.986Z,12.05
2023-01-26T04:02:52.562Z,16.63
2023-01-26T04:08:34.413Z,13.40
2023-01-26T04:11:03.654Z,14.88
2023-01-26T04:13:50.854Z,16.48
2023-01-26T04:16:57.234Z,15.82
2023-01-26T04:19:44.153Z,16.02
2023-01-26T04:22:14.950Z,18.27
2023-01-26T04:24:45.012Z,20.80
2023-01-26T04:27:13.068Z,24.33
2023-01-26T04:29:51.246Z,15.82
2023-01-26T04:32:19.746Z,10.98
2023-01-26T04:34:48.611Z,11.45
2023-01-26T04:37:24.754Z,11.88
2023-01-26T04:39:53.814Z,15.82
2023-01-26T04:42:25.425Z,17.38
2023-01-26T04:44:54.684Z,15.07
2023-01-26T04:47:23.225Z,18.77
2023-01-26T04:49:51.832Z,17.05
2023-01-26T04:52:24.096Z,15.38
2023-01-26T04:54:52.903Z,15.70
2023-01-26T04:57:21.620Z,16.85
2023-01-26T04:59:51.780Z,15.68
2023-01-26T05:02:21.481Z,16.25
2023-01-26T05:04:49.870Z,16.25
2023-01-26T05:07:17.828Z,11.40
2023-01-26T05:09:47.921Z,11.65
2023-01-26T05:12:45.596Z,12.82
2023-01-26T05:15:49.972Z,16.90
2023-01-26T05:18:37.714Z,11.65
2023-01-26T05:21:18.778Z,11.25
2023-01-26T05:23:51.419Z,12.90
2023-01-26T05:27:12.295Z,12.88
2023-01-26T05:30:06.750Z,14.00
2023-01-26T05:32:38.791Z,19.17
2023-01-26T05:35:16.527Z,17.00
2023-01-26T05:37:46.401Z,15.68
2023-01-26T05:40:16.123Z,17.90
2023-01-26T05:42:45.621Z,16.17
2023-01-26T05:45:47.961Z,16.08
2023-01-26T05:48:18.276Z,17.45
2023-01-26T05:50:47.792Z,15.52
2023-01-26T05:53:20.819Z,17.58
2023-01-26T05:55:49.661Z,18.20
2023-01-26T05:58:23.575Z,17.80
2023-01-26T06:00:52.070Z,16.98
2023-01-26T06:03:27.429Z,16.52
2023-01-26T06:05:56.559Z,15.90
2023-01-26T06:08:38.852Z,13.98
2023-01-26T06:11:26.145Z,12.57
2023-01-26T06:14:08.001Z,13.35
2023-01-26T06:16:35.970Z,14.50
2023-01-26T06:19:04.773Z,15.32
2023-01-26T06:21:34.359Z,14.60
2023-01-26T06:24:03.600Z,13.50
2023-01-26T06:26:31.633Z,20.95
2023-01-26T06:29:00.338Z,16.67
2023-01-26T06:31:33.173Z,13.77
2023-01-26T06:34:06.764Z,14.88
2023-01-26T06:36:39.244Z,13.10
2023-01-26T06:39:12.577Z,9.57
2023-01-26T06:41:44.588Z,10.00
2023-01-26T06:44:13.566Z,9.63
2023-01-26T06:46:41.897Z,12.70
2023-01-26T06:49:10.528Z,10.38
2023-01-26T06:51:59.156Z,11.25
2023-01-26T06:54:41.633Z,10.55
2023-01-26T06:57:12.459Z,11.00
2023-01-26T06:59:59.683Z,11.68
2023-01-26T07:02:34.056Z,12.57
2023-01-26T07:05:02.835Z,21.17
2023-01-26T07:07:31.235Z,17.42
2023-01-26T07:09:59.870Z,16.00
2023-01-26T07:12:39.945Z,20.33
2023-01-26T07:15:09.191Z,20.20
2023-01-26T07:17:40.624Z,21.15
2023-01-26T07:20:10.407Z,20.02
2023-01-26T07:22:38.849Z,18.67
2023-01-26T07:25:07.719Z,14.87
2023-01-26T07:27:35.698Z,13.45
2023-01-26T07:30:04.184Z,14.32
2023-01-26T07:32:32.279Z,11.60
2023-01-26T07:35:00.932Z,10.23
2023-01-26T07:37:30.649Z,7.60
2023-01-26T07:39:59.232Z,6.55
2023-01-26T07:42:27.661Z,5.72
2023-01-26T07:45:18.412Z,8.32
2023-01-26T07:47:46.808Z,10.80
2023-01-26T07:50:16.255Z,11.90
2023-01-26T07:52:45.566Z,14.25
2023-01-26T07:55:15.156Z,13.60
2023-01-26T07:57:44.119Z,12.43
2023-01-26T08:00:13.474Z,11.23
2023-01-26T08:02:42.305Z,9.20
2023-01-26T08:05:10.999Z,7.32
2023-01-26T08:07:39.475Z,6.28
2023-01-26T08:10:11.383Z,7.20
2023-01-26T08:12:41.276Z,6.22
2023-01-26T08:15:11.333Z,5.80
2023-01-26T08:17:39.607Z,5.45
2023-01-26T08:20:08.925Z,7.75
2023-01-26T08:22:37.005Z,7.18
2023-01-26T08:25:06.172Z,6.50
2023-01-26T08:27:34.425Z,6.40
2023-01-26T08:30:03.133Z,6.15
2023-01-26T08:32:31.553Z,6.93
2023-01-26T08:35:00.817Z,5.88
2023-01-26T08:37:29.216Z,6.25
2023-01-26T08:39:57.962Z,5.53
2023-01-26T08:42:26.257Z,5.85
2023-01-26T08:44:55.096Z,5.70
2023-01-26T08:47:23.337Z,5.95
2023-01-26T08:49:52.431Z,6.93
2023-01-26T08:52:22.451Z,6.90
2023-01-26T08:54:51.546Z,7.13
2023-01-26T08:57:19.983Z,7.50
2023-01-26T08:59:48.842Z,6.25
2023-01-26T09:02:17.247Z,6.28
2023-01-26T09:04:46.480Z,8.03
2023-01-26T09:07:14.828Z,6.30
2023-01-26T09:09:43.609Z,6.30
2023-01-26T09:12:12.151Z,6.40
2023-01-26T09:14:41.803Z,5.70
2023-01-26T09:17:09.889Z,6.10
2023-01-26T09:19:40.067Z,6.07
2023-01-26T09:22:08.464Z,6.60
2023-01-26T09:24:37.553Z,6.68
2023-01-26T09:27:05.771Z,6.55
2023-01-26T09:29:34.456Z,6.33
2023-01-26T09:32:03.075Z,6.18
2023-01-26T09:34:32.209Z,5.72
2023-01-26T09:37:00.573Z,5.70
2023-01-26T09:39:29.509Z,5.70
2023-01-26T09:42:51.361Z,4.90
2023-01-26T09:45:47.291Z,5.50
2023-01-26T09:48:36.609Z,6.15
2023-01-26T09:51:17.593Z,5.35
2023-01-26T09:54:02.040Z,5.88
2023-01-26T09:56:33.208Z,6.23
2023-01-26T09:59:32.874Z,5.85
2023-01-26T10:02:32.124Z,5.20
2023-01-26T10:05:05.950Z,5.35
2023-01-26T10:07:34.983Z,5.90
2023-01-26T10:10:04.079Z,5.90
2023-01-26T10:12:36.884Z,6.07
2023-01-26T10:15:30.501Z,5.22
2023-01-26T10:18:26.798Z,6.43
2023-01-26T10:20:57.364Z,6.07
2023-01-26T10:23:34.349Z,7.63
2023-01-26T10:26:15.904Z,6.75
2023-01-26T10:28:47.161Z,6.55
2023-01-26T10:31:29.319Z,5.53
2023-01-26T10:34:09.974Z,5.88
2023-01-26T10:36:38.194Z,5.70
2023-01-26T10:39:12.533Z,5.05
2023-01-26T10:41:56.491Z,5.50
2023-01-26T10:44:37.295Z,5.47
2023-01-26T10:47:05.630Z,6.20
2023-01-26T10:49:34.251Z,6.37
2023-01-26T10:52:09.733Z,6.68
2023-01-26T10:54:40.180Z,8.60
2023-01-26T10:57:34.274Z,5.35
2023-01-26T11:00:22.953Z,6.05
2023-01-26T11:03:12.926Z,6.83
2023-01-26T11:05:45.324Z,7.47
2023-01-26T11:08:40.420Z,6.78
2023-01-26T11:11:30.519Z,6.18
2023-01-26T11:14:19.376Z,5.82
2023-01-26T11:17:23.655Z,5.97
2023-01-26T11:20:13.466Z,5.50
2023-01-26T11:23:17.636Z,6.40
2023-01-26T11:26:09.190Z,5.47
2023-01-26T11:29:30.625Z,5.25
2023-01-26T11:33:14.116Z,6.20
2023-01-26T11:35:51.416Z,5.00
2023-01-26T11:38:41.620Z,5.40
2023-01-26T11:42:10.284Z,5.95
2023-01-26T11:44:54.185Z,5.18
2023-01-26T11:47:50.297Z,5.57
2023-01-26T11:50:40.998Z,5.88
2023-01-26T11:53:31.503Z,5.95
2023-01-26T11:56:19.057Z,5.47
2023-01-26T11:59:03.042Z,7.57
2023-01-26T12:01:42.767Z,5.20
2023-01-26T12:04:22.934Z,5.50
2023-01-26T12:07:07.881Z,5.80
2023-01-26T12:09:44.831Z,5.70
2023-01-26T12:12:18.707Z,6.00
2023-01-26T12:15:04.311Z,6.87
2023-01-26T12:17:44.806Z,5.88
2023-01-26T12:20:35.789Z,6.30
2023-01-26T12:23:09.750Z,5.13
2023-01-26T12:25:42.256Z,5.07
2023-01-26T12:28:56.741Z,5.40
2023-01-26T12:31:58.767Z,5.07
2023-01-26T12:34:33.980Z,5.28
2023-01-26T12:37:08.749Z,5.20
2023-01-26T12:39:54.675Z,5.15
2023-01-26T12:42:52.681Z,4.93
2023-01-26T12:45:34.430Z,4.63
2023-01-26T12:48:17.735Z,5.05
2023-01-26T12:51:07.243Z,4.82
2023-01-26T12:53:51.999Z,4.75
2023-01-26T12:56:20.249Z,5.10
2023-01-26T12:58:52.294Z,5.53
2023-01-26T13:01:24.953Z,5.45
2023-01-26T13:04:07.184Z,5.10
2023-01-26T13:06:35.730Z,5.00
2023-01-26T13:09:26.944Z,5.13
2023-01-26T13:12:00.339Z,4.70
2023-01-26T13:14:44.326Z,5.05
2023-01-26T13:17:19.433Z,5.50
2023-01-26T13:19:48.549Z,5.53
2023-01-26T13:22:19.381Z,5.70
2023-01-26T13:24:49.971Z,5.25
2023-01-26T13:27:34.420Z,5.07
2023-01-26T13:30:31.808Z,5.50
2023-01-26T13:33:12.530Z,5.47
2023-01-26T13:35:41.735Z,5.40
2023-01-26T13:38:23.816Z,5.70
2023-01-26T13:40:52.284Z,6.13
2023-01-26T13:43:43.659Z,5.22
2023-01-26T13:46:41.377Z,5.40
2023-01-26T13:49:41.189Z,5.60
2023-01-26T13:52:20.355Z,10.43
2023-01-26T13:54:49.605Z,19.80
2023-01-26T13:57:26.594Z,14.27
2023-01-26T14:00:00.770Z,13.85
2023-01-26T14:02:34.572Z,12.37
2023-01-26T14:05:03.885Z,12.02
2023-01-26T14:07:44.575Z,16.83
2023-01-26T14:10:23.103Z,6.60
2023-01-26T14:12:57.816Z,9.02
2023-01-26T14:15:31.694Z,8.47
2023-01-26T14:18:02.742Z,6.80
2023-01-26T14:20:34.086Z,6.05
2023-01-26T14:23:11.358Z,8.82
2023-01-26T14:25:41.363Z,5.80
2023-01-26T14:28:19.073Z,7.37
2023-01-26T14:30:54.357Z,13.15
2023-01-26T14:33:24.242Z,9.57
2023-01-26T14:36:00.776Z,7.95
2023-01-26T14:38:33.281Z,7.35
2023-01-26T14:41:02.035Z,6.57
2023-01-26T14:43:30.268Z,6.47
2023-01-26T14:46:08.531Z,7.28
2023-01-26T14:48:55.920Z,9.23
2023-01-26T14:51:26.013Z,8.38
2023-01-26T14:54:05.793Z,7.07
2023-01-26T14:56:39.975Z,9.40
2023-01-26T14:59:19.923Z,12.43
2023-01-26T15:01:48.102Z,7.82
2023-01-26T15:04:34.140Z,8.40
2023-01-26T15:07:24.284Z,6.67
2023-01-26T15:09:54.771Z,14.68
2023-01-26T15:12:24.237Z,9.98
2023-01-26T15:15:00.230Z,11.90
2023-01-26T15:17:42.926Z,7.95
2023-01-26T15:20:24.016Z,10.60
2023-01-26T15:22:53.772Z,10.48
2023-01-26T15:25:26.839Z,11.65
2023-01-26T15:28:00.674Z,12.65
2023-01-26T15:30:31.289Z,14.85
2023-01-26T15:32:59.530Z,18.57
2023-01-26T15:35:33.876Z,14.75
2023-01-26T15:38:10.421Z,15.35
2023-01-26T15:40:39.979Z,12.45
2023-01-26T15:43:14.769Z,11.13
2023-01-26T15:45:52.354Z,11.67
2023-01-26T15:48:22.815Z,9.18
2023-01-26T15:50:53.900Z,7.45
2023-01-26T15:53:23.174Z,7.55
2023-01-26T15:55:56.579Z,10.93
2023-01-26T15:58:25.220Z,13.80
2023-01-26T16:00:53.911Z,12.80
2023-01-26T16:03:22.748Z,9.48
2023-01-26T16:05:50.890Z,9.40
2023-01-26T16:08:19.868Z,8.73
2023-01-26T16:10:48.574Z,7.53
2023-01-26T16:13:18.759Z,7.88
2023-01-26T16:15:54.341Z,8.10
2023-01-26T16:18:23.864Z,8.05
2023-01-26T16:20:55.028Z,7.78
2023-01-26T16:23:27.881Z,9.93
2023-01-26T16:25:56.817Z,8.70
2023-01-26T16:28:25.164Z,8.73
2023-01-26T16:30:53.488Z,7.65
2023-01-26T16:33:21.987Z,7.18
2023-01-26T16:35:51.413Z,9.77
2023-01-26T16:38:19.737Z,7.10
2023-01-26T16:40:49.627Z,7.60
2023-01-26T16:43:25.019Z,7.28
2023-01-26T16:45:53.750Z,12.18
2023-01-26T16:48:23.098Z,9.80
2023-01-26T16:50:56.152Z,7.57
2023-01-26T16:53:37.124Z,7.38
2023-01-26T16:56:12.191Z,8.43
2023-01-26T16:58:41.810Z,8.73
2023-01-26T17:01:37.492Z,10.73
2023-01-26T17:04:05.904Z,9.80
2023-01-26T17:06:35.732Z,10.75
2023-01-26T17:09:05.852Z,8.10
2023-01-26T17:11:35.496Z,7.30
2023-01-26T17:14:05.359Z,8.00
2023-01-26T17:16:34.952Z,7.75
2023-01-26T17:19:03.019Z,8.23
2023-01-26T17:21:31.298Z,8.30
2023-01-26T17:24:09.030Z,12.50
2023-01-26T17:26:40.568Z,12.97
2023-01-26T17:29:10.920Z,8.95
2023-01-26T17:31:39.330Z,12.70
2023-01-26T17:34:08.582Z,12.70
2023-01-26T17:36:36.877Z,11.95
2023-01-26T17:39:04.938Z,9.50
2023-01-26T17:41:34.360Z,8.90
2023-01-26T17:44:02.382Z,10.05
2023-01-26T17:46:30.609Z,7.95
2023-01-26T17:48:58.653Z,8.60
2023-01-26T17:51:26.937Z,7.53
2023-01-26T17:53:54.869Z,7.72
2023-01-26T17:56:23.586Z,7.65
2023-01-26T17:58:57.906Z,11.85
2023-01-26T18:01:28.745Z,11.45
2023-01-26T18:04:00.353Z,11.20
2023-01-26T18:06:29.856Z,8.80
2023-01-26T18:08:57.866Z,8.30
2023-01-26T18:11:26.369Z,8.70
2023-01-26T18:13:55.858Z,7.88
2023-01-26T18:16:24.663Z,9.80
2023-01-26T18:18:56.868Z,8.60
2023-01-26T18:21:35.425Z,7.82
2023-01-26T18:24:07.763Z,7.80
2023-01-26T18:26:37.705Z,8.77
2023-01-26T18:29:06.858Z,12.37
2023-01-26T18:31:41.072Z,8.65
2023-01-26T18:34:10.645Z,7.30
2023-01-26T18:36:38.774Z,8.80
2023-01-26T18:39:12.404Z,12.40
2023-01-26T18:41:41.232Z,15.30
2023-01-26T18:44:09.222Z,9.52
2023-01-26T18:46:37.929Z,10.25
2023-01-26T18:49:06.082Z,6.70
2023-01-26T18:51:36.328Z,8.77
2023-01-26T18:54:06.140Z,7.93
2023-01-26T18:56:35.451Z,11.23
2023-01-26T18:59:08.098Z,11.15
2023-01-26T19:01:37.938Z,11.10
2023-01-26T19:04:07.701Z,23.27
2023-01-26T19:06:36.802Z,18.87
2023-01-26T19:09:07.481Z,18.65
2023-01-26T19:11:38.074Z,13.10
2023-01-26T19:14:07.811Z,17.00
2023-01-26T19:16:36.770Z,9.88
2023-01-26T19:19:05.543Z,9.73
2023-01-26T19:21:34.281Z,11.38
2023-01-26T19:24:06.212Z,11.93
2023-01-26T19:26:34.814Z,12.55
2023-01-26T19:29:02.871Z,18.65
2023-01-26T19:31:32.586Z,20.37
2023-01-26T19:34:02.926Z,17.08
2023-01-26T19:36:33.517Z,13.93
2023-01-26T19:39:02.495Z,12.13
2023-01-26T19:41:31.036Z,12.48
2023-01-26T19:43:59.122Z,10.30
2023-01-26T19:46:27.369Z,9.60
2023-01-26T19:48:56.033Z,12.15
2023-01-26T19:51:27.674Z,12.10
2023-01-26T19:53:58.724Z,8.52
2023-01-26T19:56:29.722Z,7.73
2023-01-26T19:59:03.816Z,7.82
2023-01-26T20:01:33.150Z,8.52
2023-01-26T20:04:04.958Z,8.60
2023-01-26T20:06:35.863Z,9.52
2023-01-26T20:09:05.530Z,8.80
2023-01-26T20:11:34.733Z,9.95
2023-01-26T20:14:06.380Z,9.55
2023-01-26T20:16:35.603Z,10.07
2023-01-26T20:19:04.199Z,9.45
2023-01-26T20:21:36.117Z,8.87
2023-01-26T20:24:06.065Z,8.98
2023-01-26T20:26:35.712Z,9.77
2023-01-26T20:29:04.488Z,9.27
2023-01-26T20:31:33.563Z,17.77
2023-01-26T20:34:02.614Z,12.77
2023-01-26T20:36:31.984Z,11.88
2023-01-26T20:39:00.646Z,9.32
2023-01-26T20:41:30.759Z,9.05
2023-01-26T20:44:02.187Z,9.32
2023-01-26T20:46:37.306Z,9.70
2023-01-26T20:49:09.082Z,9.77
2023-01-26T20:51:39.968Z,9.35
2023-01-26T20:54:09.038Z,9.43
2023-01-26T20:56:37.786Z,12.02
2023-01-26T20:59:07.389Z,9.00
2023-01-26T21:01:36.858Z,10.25
2023-01-26T21:04:05.903Z,11.68
2023-01-26T21:06:34.515Z,12.50
2023-01-26T21:09:02.537Z,10.73
2023-01-26T21:11:32.129Z,9.77
2023-01-26T21:14:02.162Z,10.50
2023-01-26T21:16:32.315Z,8.88
2023-01-26T21:19:00.352Z,9.23
2023-01-26T21:21:28.717Z,9.25
2023-01-26T21:23:56.900Z,17.83
2023-01-26T21:26:52.591Z,14.23
2023-01-26T21:29:20.992Z,10.65
2023-01-26T21:31:49.698Z,9.25
2023-01-26T21:34:17.515Z,9.05
2023-01-26T21:36:45.859Z,10.90
2023-01-26T21:39:15.445Z,11.25
2023-01-26T21:41:59.738Z,10.18
2023-01-26T21:44:32.711Z,9.02
2023-01-26T21:47:04.209Z,9.02
2023-01-26T21:49:32.200Z,8.47
2023-01-26T21:52:19.307Z,12.55
2023-01-26T21:54:47.061Z,11.45
2023-01-26T21:57:33.492Z,10.05
2023-01-26T22:00:01.478Z,9.10
2023-01-26T22:02:29.497Z,9.80
2023-01-26T22:04:57.449Z,8.25
2023-01-26T22:07:29.000Z,9.60
2023-01-26T22:09:56.715Z,10.20
2023-01-26T22:12:24.830Z,9.15
2023-01-26T22:14:52.892Z,8.60
2023-01-26T22:17:23.102Z,9.45
2023-01-26T22:19:51.483Z,9.75
2023-01-26T22:22:19.825Z,14.82
2023-01-26T22:24:47.544Z,12.00
2023-01-26T22:27:15.585Z,10.43
2023-01-26T22:29:43.520Z,9.73
2023-01-26T22:32:11.921Z,10.02
2023-01-26T22:34:39.667Z,8.07
2023-01-26T22:37:08.721Z,7.70
2023-01-26T22:39:36.537Z,8.80
2023-01-26T22:42:05.045Z,9.00
2023-01-26T22:44:34.517Z,8.90
2023-01-26T22:47:03.873Z,9.60
2023-01-26T22:49:31.654Z,9.05
2023-01-26T22:51:59.859Z,8.30
2023-01-26T22:54:32.338Z,9.10
2023-01-26T22:57:00.470Z,7.97
2023-01-26T22:59:28.163Z,8.05
2023-01-26T23:01:56.310Z,8.95
2023-01-26T23:04:24.159Z,8.53
2023-01-26T23:06:52.381Z,8.23
2023-01-26T23:09:20.210Z,7.93
2023-01-26T23:12:03.794Z,7.55
2023-01-26T23:14:37.095Z,7.43
2023-01-26T23:17:05.936Z,8.23
2023-01-26T23:19:34.009Z,6.40
2023-01-26T23:22:02.329Z,7.80
2023-01-26T23:24:30.296Z,7.35
2023-01-26T23:26:58.609Z,7.95
2023-01-26T23:29:26.430Z,7.73
2023-01-26T23:31:54.603Z,6.97
2023-01-26T23:34:22.380Z,7.40
2023-01-26T23:36:50.651Z,7.35
2023-01-26T23:39:18.377Z,7.72
2023-01-26T23:41:46.499Z,7.27
2023-01-26T23:44:14.361Z,8.77
2023-01-26T23:46:44.216Z,9.02
2023-01-26T23:49:11.999Z,8.55
2023-01-26T23:51:40.255Z,8.40
2023-01-26T23:54:08.025Z,8.50
2023-01-26T23:56:36.188Z,8.30
2023-01-26T23:59:03.947Z,7.82
